Flight Track Log - Related Links

Times and Time Zones

All times are in EDT time to prevent confusion due to time zone crossing. See the AWE1940 flight status page for this flight to view local times or setup timezone preferences in your user account.

Time Position Orientation Groundspeed Altitude Reporting Facility
EDT Latitude Longitude Course Direction KTS MPH feet Rate Location/Type
Mon 10:43:01 PM 35.2389 -80.9414 71° East 180 207 1,600  Level Atlanta Center
Mon 10:43:32 PM 35.2617 -80.9331 17° North 194 223 2,400 1,957 Climbing Atlanta Center
Mon 10:44:33 PM 35.2872 -80.8658 65° Northeast 258 297 4,600 2,460 Climbing Atlanta Center
Mon 10:45:00 PM 35.2194 -80.5528 30° Northeast  Level FlightAware Approximate
Mon 10:45:12 PM 35.2919 -80.8097 84° East 272 313 6,500  Level Atlanta Center
Mon 10:46:00 PM 35.3358 -80.4572 72° East  Level FlightAware Approximate
Mon 10:46:12 PM 35.3042 -80.7178 81° East 297 342 9,300  Level Atlanta Center
Mon 10:47:00 PM 35.3823 -80.2810 72° East  Level FlightAware Approximate
Mon 10:47:12 PM 35.3158 -80.6128 82° East 297 342 11,200  Level Atlanta Center
Mon 10:48:00 PM 35.4291 -80.1049 71° East  Level FlightAware Approximate
Mon 10:48:12 PM 35.3308 -80.4825 82° East 324 373 13,400  Level Atlanta Center
Mon 10:49:12 PM 35.3669 -80.3586 70° East 362 417 15,700 2,057 Climbing Atlanta Center
Mon 10:51:07 PM 35.4381 -80.1247 69° East 404 465 19,400 1,897 Climbing Washington Center
Mon 10:52:06 PM 35.4769 -79.9764 72° East 404 465 21,200 1,750 Climbing Washington Center
Mon 10:53:07 PM 35.5133 -79.8331 73° East 419 482 22,900 1,600 Climbing Washington Center
Mon 10:54:06 PM 35.5497 -79.6869 73° East 431 496 24,400 1,450 Climbing Washington Center
Mon 10:55:07 PM 35.5906 -79.5306 72° East 457 526 25,800 1,240 Climbing Washington Center
Mon 10:56:07 PM 35.6617 -79.3936 57° Northeast 471 542 26,900 942 Climbing Washington Center
Mon 10:57:08 PM 35.7450 -79.2619 52° Northeast 471 542 27,700 1,008 Climbing Washington Center
Mon 10:58:06 PM 35.8308 -79.1197 53° Northeast 491 565 28,900 661 Climbing Washington Center
Mon 10:59:06 PM 35.9181 -78.9828 52° Northeast 504 580 29,000 50 Climbing Washington Center
Mon 11:00:05 PM 36.0056 -78.8400 53° Northeast 509 586 29,000  Level Washington Center
Mon 11:01:07 PM 36.0819 -78.7172 52° Northeast 509 586 29,000  Level Washington Center
Mon 11:02:08 PM 36.1669 -78.5739 54° Northeast 509 586 29,000  Level Washington Center
Mon 11:03:07 PM 36.2700 -78.4517 44° Northeast 509 586 29,000  Level Washington Center
Mon 11:04:07 PM 36.3769 -78.3394 40° Northeast 503 579 29,000  Level Washington Center
Mon 11:05:06 PM 36.4858 -78.2269 40° Northeast 503 579 29,000  Level Washington Center
Mon 11:06:08 PM 36.5906 -78.1142 41° Northeast 503 579 29,000  Level Washington Center
Mon 11:07:07 PM 36.6972 -78.0011 40° Northeast 497 572 29,000  Level Washington Center
Mon 11:08:06 PM 36.8061 -77.8825 41° Northeast 497 572 29,000  Level Washington Center
Mon 11:09:06 PM 36.9144 -77.7689 40° Northeast 497 572 29,000  Level Washington Center
Mon 11:10:08 PM 37.0231 -77.6547 40° Northeast 497 572 29,000  Level Washington Center
Mon 11:11:05 PM 37.1314 -77.5378 41° Northeast 497 572 29,000  Level Washington Center
Mon 11:12:07 PM 37.2394 -77.4206 41° Northeast 504 580 29,000  Level Washington Center
Mon 11:13:08 PM 37.3456 -77.3081 40° Northeast 504 580 29,000  Level Washington Center
Mon 11:14:08 PM 37.4556 -77.1903 40° Northeast 504 580 29,000  Level Washington Center
Mon 11:15:06 PM 37.5719 -77.0617 41° Northeast 504 580 29,000  Level Washington Center
Mon 11:16:08 PM 37.6797 -76.9431 41° Northeast 504 580 29,000  Level Washington Center
Mon 11:17:08 PM 37.7853 -76.8242 42° Northeast 509 586 29,000  Level Washington Center
Mon 11:18:08 PM 37.8906 -76.7075 41° Northeast 509 586 29,000  Level Washington Center
Mon 11:19:06 PM 37.9981 -76.5906 41° Northeast 509 586 29,000  Level Washington Center
Mon 11:20:08 PM 38.1033 -76.4758 41° Northeast 509 586 29,000  Level Washington Center
Mon 11:21:07 PM 38.1978 -76.3658 42° Northeast 504 580 29,000  Level Washington Center
Mon 11:22:08 PM 38.3028 -76.2506 41° Northeast 504 580 29,000  Level Washington Center
Mon 11:23:06 PM 38.4075 -76.1294 42° Northeast 499 574 29,000  Level Washington Center
Mon 11:24:07 PM 38.5122 -76.0108 42° Northeast 499 574 29,000  Level Washington Center
Mon 11:25:08 PM 38.6189 -75.8947 40° Northeast 499 574 29,000  Level Washington Center
Mon 11:26:05 PM 38.7233 -75.7781 41° Northeast 499 574 29,000  Level Washington Center
Mon 11:27:05 PM 38.8278 -75.6583 42° Northeast 499 574 29,000  Level Washington Center
Mon 11:28:06 PM 38.9342 -75.5436 40° Northeast 494 568 29,000  Level Washington Center
Mon 11:29:07 PM 39.0342 -75.4206 44° Northeast 494 568 29,000  Level Washington Center
Mon 11:30:06 PM 39.1381 -75.3053 41° Northeast 494 568 29,000  Level Washington Center
Mon 11:31:05 PM 39.2397 -75.1817 43° Northeast 494 568 29,000  Level Washington Center
Mon 11:32:07 PM 39.3478 -75.0683 39° Northeast 489 563 29,000  Level Washington Center
Mon 11:33:06 PM 39.4575 -74.9572 38° Northeast 489 563 29,000  Level Washington Center
Mon 11:34:06 PM 39.5633 -74.8539 37° Northeast 489 563 29,000  Level Washington Center
Mon 11:35:00 PM 39.6692 -74.7489 37° Northeast 483 556 29,000  Level New York Center
Mon 11:36:00 PM 39.7642 -74.6517 38° Northeast 483 556 29,000  Level New York Center
Mon 11:37:00 PM 39.8825 -74.5339 37° Northeast 478 550 29,000  Level New York Center
Mon 11:38:00 PM 39.9794 -74.4361 38° Northeast 478 550 29,000  Level New York Center
Mon 11:38:59 PM 40.0869 -74.3331 36° Northeast 478 550 29,000  Level New York Center
Mon 11:40:00 PM 40.2111 -74.2933 14° North 451 519 29,000  Level New York Center
Mon 11:41:00 PM 40.3369 -74.2697 North 446 513 29,000  Level New York Center
Mon 11:42:37 PM 40.5356 -74.2258 10° North 429 494 29,000  Level Boston Center
Mon 11:43:38 PM 40.6589 -74.2075 North 434 499 29,000  Level Boston Center
Mon 11:44:40 PM 40.7947 -74.1864 North 434 499 29,000 -500 Level Boston Center
Mon 11:45:38 PM 40.9158 -74.1622 North 444 511 28,000 -958 Descending Boston Center
Mon 11:46:39 PM 41.0392 -74.1381 North 444 511 27,100 -958 Descending Boston Center
Mon 11:47:37 PM 41.1583 -74.1164 North 444 511 26,100 -550 Descending Boston Center
Mon 11:48:39 PM 41.2756 -74.0889 10° North 444 511 26,000 -98 Descending Boston Center
Mon 11:49:39 PM 41.3925 -74.0672 North 432 497 25,900 -712 Descending Boston Center
Mon 11:50:37 PM 41.5136 -74.0453 North 432 497 24,600 -2,136 Descending Boston Center
Mon 11:51:37 PM 41.6369 -74.0233 North 432 497 21,700 -2,650 Descending Boston Center
Mon 11:52:37 PM 41.7500 -73.9956 10° North 425 489 19,300 -2,800 Descending Boston Center
Mon 11:53:37 PM 41.8542 -73.9814 North 391 450 16,100 -2,835 Descending Boston Center
Mon 11:54:08 PM 41.9022 -73.9714 North 404 465 15,000 -2,545 Descending Boston Center
Mon 11:54:43 PM 41.9672 -73.9592 North 396 456 13,300 -2,667 Descending Boston Center
Mon 11:55:38 PM 42.0675 -73.9364 10° North 386 444 11,000 -1,200 Descending Boston Center
Mon 11:56:38 PM 42.1700 -73.9164 North 374 430 11,000 -350 Level Boston Center
Mon 11:57:38 PM 42.2578 -73.8931 11° North 333 383 10,300 -1,050 Descending Boston Center
Mon 11:58:38 PM 42.3353 -73.8669 14° North 300 345 8,900 -1,850 Descending Boston Center
Mon 11:59:38 PM 42.4147 -73.8406 14° North 279 321 6,600 -2,200 Descending Boston Center
Tue 12:00:38 AM 42.4900 -73.8169 13° North 279 321 4,500 -1,339 Descending Boston Center
Tue 12:01:39 AM 42.5569 -73.7931 15° North 258 297 3,900 -968 Descending Boston Center
Tue 12:02:42 AM 42.6089 -73.8025 352° North 174 200 2,500 -1,023 Descending Boston Center
Tue 12:03:48 AM 42.6611 -73.8036 359° North 149 171 1,700 -709 Descending Boston Center
Tue 12:04:49 AM 42.6986 -73.8044 359° North 133 153 1,000 -689 Descending Boston Center

Login

Don't have an account? Register now (free) for customized features, flight alerts, and more!